sensor_id;sensor_type;location;lat;lon;timestamp;pressure;altitude;pressure_sealevel;temperature;humidity
80414;BME280;69758;52.580;13.068;2023-11-19T00:01:06;101292.54;;;10.67;33.62
80414;BME280;69758;52.580;13.068;2023-11-19T00:03:31;101279.58;;;11.14;33.70
80414;BME280;69758;52.580;13.068;2023-11-19T00:05:56;101268.45;;;11.14;33.67
80414;BME280;69758;52.580;13.068;2023-11-19T00:08:23;101254.23;;;10.79;33.68
80414;BME280;69758;52.580;13.068;2023-11-19T00:10:47;101251.11;;;11.08;33.67
80414;BME280;69758;52.580;13.068;2023-11-19T00:13:13;101248.22;;;10.58;33.65
80414;BME280;69758;52.580;13.068;2023-11-19T00:15:39;101241.88;;;11.03;33.73
80414;BME280;69758;52.580;13.068;2023-11-19T00:18:04;101233.89;;;10.62;33.62
80414;BME280;69758;52.580;13.068;2023-11-19T00:20:29;101240.96;;;10.53;33.73
80414;BME280;69758;52.580;13.068;2023-11-19T00:22:55;101236.26;;;10.63;33.71
80414;BME280;69758;52.580;13.068;2023-11-19T00:25:21;101231.46;;;11.02;33.55
80414;BME280;69758;52.580;13.068;2023-11-19T00:27:46;101227.91;;;11.24;33.41
80414;BME280;69758;52.580;13.068;2023-11-19T00:30:11;101221.01;;;11.15;33.60
80414;BME280;69758;52.580;13.068;2023-11-19T00:32:36;101215.88;;;10.74;33.51
80414;BME280;69758;52.580;13.068;2023-11-19T00:35:04;101204.24;;;11.13;33.57
80414;BME280;69758;52.580;13.068;2023-11-19T00:37:27;101197.33;;;10.96;33.57
80414;BME280;69758;52.580;13.068;2023-11-19T00:39:52;101194.44;;;11.03;33.54
80414;BME280;69758;52.580;13.068;2023-11-19T00:42:18;101186.67;;;10.96;33.53
80414;BME280;69758;52.580;13.068;2023-11-19T00:44:42;101171.49;;;11.22;33.46
80414;BME280;69758;52.580;13.068;2023-11-19T00:47:09;101159.69;;;10.75;33.46
80414;BME280;69758;52.580;13.068;2023-11-19T00:49:33;101159.80;;;10.72;33.53
80414;BME280;69758;52.580;13.068;2023-11-19T00:51:58;101156.44;;;10.85;33.43
80414;BME280;69758;52.580;13.068;2023-11-19T00:54:24;101153.35;;;10.92;33.40
80414;BME280;69758;52.580;13.068;2023-11-19T00:56:49;101151.94;;;10.91;33.41
80414;BME280;69758;52.580;13.068;2023-11-19T00:59:15;101136.31;;;11.17;33.30
80414;BME280;69758;52.580;13.068;2023-11-19T01:01:42;101117.50;;;11.03;33.43
80414;BME280;69758;52.580;13.068;2023-11-19T01:04:07;101108.64;;;10.71;33.52
80414;BME280;69758;52.580;13.068;2023-11-19T01:06:31;101105.98;;;11.10;33.49
80414;BME280;69758;52.580;13.068;2023-11-19T01:08:56;101093.12;;;11.03;33.66
80414;BME280;69758;52.580;13.068;2023-11-19T01:11:21;101087.19;;;11.08;33.67
80414;BME280;69758;52.580;13.068;2023-11-19T01:13:48;101086.34;;;10.87;33.46
80414;BME280;69758;52.580;13.068;2023-11-19T01:16:12;101084.20;;;10.78;33.61
80414;BME280;69758;52.580;13.068;2023-11-19T01:18:37;101073.97;;;11.09;33.63
80414;BME280;69758;52.580;13.068;2023-11-19T01:21:05;101073.44;;;10.87;33.55
80414;BME280;69758;52.580;13.068;2023-11-19T01:23:28;101073.64;;;10.99;33.69
80414;BME280;69758;52.580;13.068;2023-11-19T01:25:54;101065.99;;;10.51;33.69
80414;BME280;69758;52.580;13.068;2023-11-19T01:28:19;101061.83;;;10.62;33.60
80414;BME280;69758;52.580;13.068;2023-11-19T01:30:44;101046.60;;;10.76;33.42
80414;BME280;69758;52.580;13.068;2023-11-19T01:33:10;101027.70;;;10.79;33.41
80414;BME280;69758;52.580;13.068;2023-11-19T01:35:34;101024.58;;;10.80;33.76
80414;BME280;69758;52.580;13.068;2023-11-19T01:38:00;101015.12;;;10.82;33.88
80414;BME280;69758;52.580;13.068;2023-11-19T01:40:25;101017.92;;;10.74;33.78
80414;BME280;69758;52.580;13.068;2023-11-19T01:42:50;101015.41;;;10.93;33.87
80414;BME280;69758;52.580;13.068;2023-11-19T01:45:26;101007.44;;;10.43;33.91
80414;BME280;69758;52.580;13.068;2023-11-19T01:47:41;100998.22;;;10.97;33.96
80414;BME280;69758;52.580;13.068;2023-11-19T01:50:08;100977.03;;;10.69;34.12
80414;BME280;69758;52.580;13.068;2023-11-19T01:52:32;100976.18;;;11.03;34.16
80414;BME280;69758;52.580;13.068;2023-11-19T01:54:57;100975.19;;;10.97;34.16
80414;BME280;69758;52.580;13.068;2023-11-19T01:57:24;100973.06;;;11.21;34.00
80414;BME280;69758;52.580;13.068;2023-11-19T01:59:48;100963.02;;;11.21;33.75
80414;BME280;69758;52.580;13.068;2023-11-19T02:02:13;100951.56;;;11.26;33.76
80414;BME280;69758;52.580;13.068;2023-11-19T02:04:38;100946.55;;;11.30;33.64
80414;BME280;69758;52.580;13.068;2023-11-19T02:07:04;100934.51;;;11.00;33.70
80414;BME280;69758;52.580;13.068;2023-11-19T02:09:29;100921.14;;;11.34;33.63
80414;BME280;69758;52.580;13.068;2023-11-19T02:11:55;100898.89;;;11.28;33.86
80414;BME280;69758;52.580;13.068;2023-11-19T02:14:24;100890.53;;;10.79;33.87
80414;BME280;69758;52.580;13.068;2023-11-19T02:16:45;100890.32;;;10.90;33.86
80414;BME280;69758;52.580;13.068;2023-11-19T02:19:11;100893.27;;;10.89;33.80
80414;BME280;69758;52.580;13.068;2023-11-19T02:21:35;100894.44;;;11.30;33.90
80414;BME280;69758;52.580;13.068;2023-11-19T02:24:02;100889.46;;;11.26;33.86
80414;BME280;69758;52.580;13.068;2023-11-19T02:26:31;100881.80;;;11.12;34.04
80414;BME280;69758;52.580;13.068;2023-11-19T02:28:51;100882.49;;;11.21;33.97
80414;BME280;69758;52.580;13.068;2023-11-19T02:31:17;100879.31;;;11.00;33.89
80414;BME280;69758;52.580;13.068;2023-11-19T02:33:42;100869.98;;;11.00;33.91
80414;BME280;69758;52.580;13.068;2023-11-19T02:36:09;100858.08;;;11.08;33.86
80414;BME280;69758;52.580;13.068;2023-11-19T02:38:33;100845.83;;;10.73;34.00
80414;BME280;69758;52.580;13.068;2023-11-19T02:40:58;100844.72;;;11.25;34.05
80414;BME280;69758;52.580;13.068;2023-11-19T02:43:24;100841.80;;;10.82;34.09
80414;BME280;69758;52.580;13.068;2023-11-19T02:45:50;100827.24;;;10.98;34.25
80414;BME280;69758;52.580;13.068;2023-11-19T02:48:15;100815.87;;;11.13;34.17
80414;BME280;69758;52.580;13.068;2023-11-19T02:50:40;100806.77;;;11.16;34.14
80414;BME280;69758;52.580;13.068;2023-11-19T02:53:05;100810.55;;;10.94;34.23
80414;BME280;69758;52.580;13.068;2023-11-19T02:55:30;100815.25;;;11.03;34.28
80414;BME280;69758;52.580;13.068;2023-11-19T02:57:56;100817.30;;;11.09;34.25
80414;BME280;69758;52.580;13.068;2023-11-19T03:00:23;100817.83;;;11.55;34.10
80414;BME280;69758;52.580;13.068;2023-11-19T03:02:47;100818.41;;;11.33;34.22
80414;BME280;69758;52.580;13.068;2023-11-19T03:05:13;100820.97;;;11.19;34.25
80414;BME280;69758;52.580;13.068;2023-11-19T03:07:38;100814.92;;;11.19;34.27
80414;BME280;69758;52.580;13.068;2023-11-19T03:10:03;100808.67;;;11.11;34.16
80414;BME280;69758;52.580;13.068;2023-11-19T03:12:29;100799.03;;;11.16;34.29
80414;BME280;69758;52.580;13.068;2023-11-19T03:14:54;100802.18;;;11.17;34.45
80414;BME280;69758;52.580;13.068;2023-11-19T03:17:20;100800.01;;;11.34;34.58
80414;BME280;69758;52.580;13.068;2023-11-19T03:19:45;100781.79;;;11.18;34.63
80414;BME280;69758;52.580;13.068;2023-11-19T03:22:10;100761.01;;;10.69;35.21
80414;BME280;69758;52.580;13.068;2023-11-19T03:24:36;100750.73;;;10.95;35.58
80414;BME280;69758;52.580;13.068;2023-11-19T03:27:02;100753.37;;;11.00;35.94
80414;BME280;69758;52.580;13.068;2023-11-19T03:29:27;100756.19;;;11.00;36.09
80414;BME280;69758;52.580;13.068;2023-11-19T03:31:52;100750.84;;;10.96;35.89
80414;BME280;69758;52.580;13.068;2023-11-19T03:34:18;100736.00;;;10.79;35.89
80414;BME280;69758;52.580;13.068;2023-11-19T03:36:43;100733.95;;;10.96;35.74
80414;BME280;69758;52.580;13.068;2023-11-19T03:39:10;100723.03;;;11.01;35.71
80414;BME280;69758;52.580;13.068;2023-11-19T03:41:34;100705.77;;;11.25;35.84
80414;BME280;69758;52.580;13.068;2023-11-19T03:43:59;100693.57;;;11.30;36.15
80414;BME280;69758;52.580;13.068;2023-11-19T03:46:25;100691.34;;;10.90;36.41
80414;BME280;69758;52.580;13.068;2023-11-19T03:48:50;100691.35;;;10.88;36.44
80414;BME280;69758;52.580;13.068;2023-11-19T03:51:16;100686.19;;;10.85;36.44
80414;BME280;69758;52.580;13.068;2023-11-19T03:53:42;100670.27;;;10.82;36.63
80414;BME280;69758;52.580;13.068;2023-11-19T03:56:08;100663.77;;;10.93;36.45
80414;BME280;69758;52.580;13.068;2023-11-19T03:58:31;100657.90;;;11.00;36.44
80414;BME280;69758;52.580;13.068;2023-11-19T04:00:57;100654.98;;;10.97;36.43
80414;BME280;69758;52.580;13.068;2023-11-19T04:03:23;100656.79;;;11.13;36.37
80414;BME280;69758;52.580;13.068;2023-11-19T04:05:47;100649.66;;;10.96;36.29
80414;BME280;69758;52.580;13.068;2023-11-19T04:08:13;100656.14;;;10.88;36.39
80414;BME280;69758;52.580;13.068;2023-11-19T04:10:38;100649.03;;;11.06;36.56
80414;BME280;69758;52.580;13.068;2023-11-19T04:13:04;100640.11;;;11.04;36.55
80414;BME280;69758;52.580;13.068;2023-11-19T04:15:29;100641.20;;;10.95;36.70
80414;BME280;69758;52.580;13.068;2023-11-19T04:17:54;100630.70;;;10.80;36.59
80414;BME280;69758;52.580;13.068;2023-11-19T04:20:19;100632.15;;;10.87;36.93
80414;BME280;69758;52.580;13.068;2023-11-19T04:22:44;100637.75;;;10.64;36.96
80414;BME280;69758;52.580;13.068;2023-11-19T04:25:10;100642.82;;;10.86;36.72
80414;BME280;69758;52.580;13.068;2023-11-19T04:27:35;100634.77;;;11.24;36.56
80414;BME280;69758;52.580;13.068;2023-11-19T04:30:02;100625.16;;;11.18;36.63
80414;BME280;69758;52.580;13.068;2023-11-19T04:32:26;100615.26;;;11.51;36.54
80414;BME280;69758;52.580;13.068;2023-11-19T04:34:52;100608.98;;;11.11;36.78
80414;BME280;69758;52.580;13.068;2023-11-19T04:37:17;100613.90;;;10.89;36.82
80414;BME280;69758;52.580;13.068;2023-11-19T04:39:44;100620.34;;;10.95;36.79
80414;BME280;69758;52.580;13.068;2023-11-19T04:42:10;100616.59;;;11.08;36.70
80414;BME280;69758;52.580;13.068;2023-11-19T04:44:34;100603.51;;;11.17;36.58
80414;BME280;69758;52.580;13.068;2023-11-19T04:46:59;100591.61;;;11.39;36.63
80414;BME280;69758;52.580;13.068;2023-11-19T04:49:24;100583.74;;;11.54;36.78
80414;BME280;69758;52.580;13.068;2023-11-19T04:51:50;100579.49;;;11.27;36.88
80414;BME280;69758;52.580;13.068;2023-11-19T04:54:15;100568.14;;;10.99;37.07
80414;BME280;69758;52.580;13.068;2023-11-19T04:56:45;100544.53;;;11.27;37.33
80414;BME280;69758;52.580;13.068;2023-11-19T04:59:07;100534.19;;;10.66;37.54
80414;BME280;69758;52.580;13.068;2023-11-19T05:01:32;100529.25;;;10.98;37.53
80414;BME280;69758;52.580;13.068;2023-11-19T05:03:57;100525.76;;;11.27;37.35
80414;BME280;69758;52.580;13.068;2023-11-19T05:06:24;100523.62;;;10.81;37.50
80414;BME280;69758;52.580;13.068;2023-11-19T05:08:48;100522.79;;;11.36;37.37
80414;BME280;69758;52.580;13.068;2023-11-19T05:11:13;100515.62;;;10.87;37.40
80414;BME280;69758;52.580;13.068;2023-11-19T05:13:44;100508.00;;;11.32;37.53
80414;BME280;69758;52.580;13.068;2023-11-19T05:16:05;100499.86;;;10.96;37.68
80414;BME280;69758;52.580;13.068;2023-11-19T05:18:30;100495.42;;;11.18;37.70
80414;BME280;69758;52.580;13.068;2023-11-19T05:20:55;100494.39;;;10.84;37.91
80414;BME280;69758;52.580;13.068;2023-11-19T05:23:21;100488.15;;;11.04;37.65
80414;BME280;69758;52.580;13.068;2023-11-19T05:25:47;100488.70;;;10.99;37.71
80414;BME280;69758;52.580;13.068;2023-11-19T05:28:12;100485.77;;;10.98;37.81
80414;BME280;69758;52.580;13.068;2023-11-19T05:30:36;100479.53;;;10.98;37.83
80414;BME280;69758;52.580;13.068;2023-11-19T05:33:03;100475.93;;;10.99;38.26
80414;BME280;69758;52.580;13.068;2023-11-19T05:35:27;100464.09;;;10.88;38.15
80414;BME280;69758;52.580;13.068;2023-11-19T05:37:53;100463.23;;;10.60;38.22
80414;BME280;69758;52.580;13.068;2023-11-19T05:40:19;100455.96;;;10.94;38.11
80414;BME280;69758;52.580;13.068;2023-11-19T05:42:43;100455.03;;;10.75;38.05
80414;BME280;69758;52.580;13.068;2023-11-19T05:45:13;100447.28;;;10.85;38.01
80414;BME280;69758;52.580;13.068;2023-11-19T05:47:34;100442.65;;;11.04;37.75
80414;BME280;69758;52.580;13.068;2023-11-19T05:50:00;100445.51;;;11.11;37.68
80414;BME280;69758;52.580;13.068;2023-11-19T05:52:28;100446.20;;;11.35;37.64
80414;BME280;69758;52.580;13.068;2023-11-19T05:54:50;100442.71;;;11.41;37.64
80414;BME280;69758;52.580;13.068;2023-11-19T05:57:16;100442.94;;;11.19;37.60
80414;BME280;69758;52.580;13.068;2023-11-19T05:59:41;100439.12;;;11.54;37.56
80414;BME280;69758;52.580;13.068;2023-11-19T06:02:08;100429.81;;;11.15;37.42
80414;BME280;69758;52.580;13.068;2023-11-19T06:04:32;100417.45;;;11.24;37.60
80414;BME280;69758;52.580;13.068;2023-11-19T06:06:57;100413.65;;;11.19;37.76
80414;BME280;69758;52.580;13.068;2023-11-19T06:09:23;100412.99;;;11.30;37.64
80414;BME280;69758;52.580;13.068;2023-11-19T06:11:48;100415.58;;;11.53;37.63
80414;BME280;69758;52.580;13.068;2023-11-19T06:14:15;100420.53;;;11.35;37.63
80414;BME280;69758;52.580;13.068;2023-11-19T06:16:39;100408.58;;;11.38;37.50
80414;BME280;69758;52.580;13.068;2023-11-19T06:19:04;100396.61;;;11.08;37.69
80414;BME280;69758;52.580;13.068;2023-11-19T06:21:29;100383.02;;;11.16;37.86
80414;BME280;69758;52.580;13.068;2023-11-19T06:23:55;100379.02;;;11.17;37.93
80414;BME280;69758;52.580;13.068;2023-11-19T06:26:20;100386.12;;;11.31;38.09
80414;BME280;69758;52.580;13.068;2023-11-19T06:28:45;100386.33;;;11.31;38.13
80414;BME280;69758;52.580;13.068;2023-11-19T06:31:11;100382.07;;;11.13;38.10
80414;BME280;69758;52.580;13.068;2023-11-19T06:33:37;100385.44;;;11.44;38.01
80414;BME280;69758;52.580;13.068;2023-11-19T06:36:02;100372.32;;;11.28;37.97
80414;BME280;69758;52.580;13.068;2023-11-19T06:38:27;100378.68;;;11.36;37.86
80414;BME280;69758;52.580;13.068;2023-11-19T06:40:52;100393.52;;;11.34;37.96
80414;BME280;69758;52.580;13.068;2023-11-19T06:43:18;100387.85;;;11.36;37.96
80414;BME280;69758;52.580;13.068;2023-11-19T06:45:44;100381.82;;;11.53;37.73
80414;BME280;69758;52.580;13.068;2023-11-19T06:48:09;100381.71;;;11.72;37.52
80414;BME280;69758;52.580;13.068;2023-11-19T06:50:34;100382.93;;;11.78;37.36
80414;BME280;69758;52.580;13.068;2023-11-19T06:52:59;100388.04;;;11.63;37.22
80414;BME280;69758;52.580;13.068;2023-11-19T06:55:27;100376.66;;;11.96;37.08
80414;BME280;69758;52.580;13.068;2023-11-19T06:57:51;100376.51;;;12.04;37.06
80414;BME280;69758;52.580;13.068;2023-11-19T07:00:16;100378.69;;;12.08;37.04
80414;BME280;69758;52.580;13.068;2023-11-19T07:02:42;100374.58;;;12.05;37.04
80414;BME280;69758;52.580;13.068;2023-11-19T07:05:07;100369.54;;;12.08;37.07
80414;BME280;69758;52.580;13.068;2023-11-19T07:07:32;100369.56;;;11.60;37.10
80414;BME280;69758;52.580;13.068;2023-11-19T07:09:58;100370.95;;;12.12;37.07
80414;BME280;69758;52.580;13.068;2023-11-19T07:12:23;100373.95;;;12.11;37.12
80414;BME280;69758;52.580;13.068;2023-11-19T07:14:49;100362.69;;;11.94;37.07
80414;BME280;69758;52.580;13.068;2023-11-19T07:17:14;100377.63;;;12.20;37.08
80414;BME280;69758;52.580;13.068;2023-11-19T07:19:39;100379.25;;;12.02;37.02
80414;BME280;69758;52.580;13.068;2023-11-19T07:22:05;100376.76;;;11.82;36.99
80414;BME280;69758;52.580;13.068;2023-11-19T07:24:30;100364.88;;;12.02;37.04
80414;BME280;69758;52.580;13.068;2023-11-19T07:26:56;100371.21;;;12.05;37.12
80414;BME280;69758;52.580;13.068;2023-11-19T07:29:21;100374.14;;;12.26;37.20
80414;BME280;69758;52.580;13.068;2023-11-19T07:31:46;100370.15;;;12.03;37.26
80414;BME280;69758;52.580;13.068;2023-11-19T07:34:12;100368.76;;;12.13;37.17
80414;BME280;69758;52.580;13.068;2023-11-19T07:36:37;100363.04;;;12.38;37.39
80414;BME280;69758;52.580;13.068;2023-11-19T07:39:03;100370.24;;;11.96;38.10
80414;BME280;69758;52.580;13.068;2023-11-19T07:41:29;100368.65;;;11.72;38.69
80414;BME280;69758;52.580;13.068;2023-11-19T07:43:54;100363.41;;;12.00;38.39
80414;BME280;69758;52.580;13.068;2023-11-19T07:46:18;100374.97;;;11.96;38.55
80414;BME280;69758;52.580;13.068;2023-11-19T07:48:44;100365.97;;;11.96;38.30
80414;BME280;69758;52.580;13.068;2023-11-19T07:51:12;100377.30;;;12.14;38.07
80414;BME280;69758;52.580;13.068;2023-11-19T07:53:35;100380.27;;;12.38;38.15
80414;BME280;69758;52.580;13.068;2023-11-19T07:56:00;100375.08;;;12.02;38.01
80414;BME280;69758;52.580;13.068;2023-11-19T07:58:26;100369.57;;;12.16;37.83
80414;BME280;69758;52.580;13.068;2023-11-19T08:00:51;100369.27;;;12.48;37.69
80414;BME280;69758;52.580;13.068;2023-11-19T08:03:16;100365.05;;;12.55;37.70
80414;BME280;69758;52.580;13.068;2023-11-19T08:05:42;100366.00;;;12.84;37.69
80414;BME280;69758;52.580;13.068;2023-11-19T08:08:08;100364.30;;;12.40;37.79
80414;BME280;69758;52.580;13.068;2023-11-19T08:10:32;100365.96;;;12.71;37.80
80414;BME280;69758;52.580;13.068;2023-11-19T08:12:58;100363.54;;;12.68;37.97
80414;BME280;69758;52.580;13.068;2023-11-19T08:15:23;100363.20;;;12.55;37.90
80414;BME280;69758;52.580;13.068;2023-11-19T08:17:49;100357.56;;;12.64;37.81
80414;BME280;69758;52.580;13.068;2023-11-19T08:20:14;100348.64;;;12.71;37.79
80414;BME280;69758;52.580;13.068;2023-11-19T08:22:39;100355.54;;;12.86;37.94
80414;BME280;69758;52.580;13.068;2023-11-19T08:25:05;100343.62;;;12.23;37.99
80414;BME280;69758;52.580;13.068;2023-11-19T08:27:30;100338.34;;;12.87;37.85
80414;BME280;69758;52.580;13.068;2023-11-19T08:29:56;100343.51;;;12.92;37.80
80414;BME280;69758;52.580;13.068;2023-11-19T08:32:22;100350.51;;;12.91;37.90
80414;BME280;69758;52.580;13.068;2023-11-19T08:34:46;100339.75;;;12.89;38.20
80414;BME280;69758;52.580;13.068;2023-11-19T08:37:13;100345.12;;;13.00;38.13
80414;BME280;69758;52.580;13.068;2023-11-19T08:39:37;100339.77;;;13.16;38.35
80414;BME280;69758;52.580;13.068;2023-11-19T08:42:03;100332.47;;;13.04;38.26
80414;BME280;69758;52.580;13.068;2023-11-19T08:44:27;100326.95;;;13.19;38.12
80414;BME280;69758;52.580;13.068;2023-11-19T08:46:53;100328.26;;;13.23;38.07
80414;BME280;69758;52.580;13.068;2023-11-19T08:49:19;100326.33;;;13.17;38.34
80414;BME280;69758;52.580;13.068;2023-11-19T08:51:44;100328.50;;;13.27;38.26
80414;BME280;69758;52.580;13.068;2023-11-19T08:54:09;100335.52;;;12.87;38.26
80414;BME280;69758;52.580;13.068;2023-11-19T08:56:34;100336.90;;;12.91;38.28
80414;BME280;69758;52.580;13.068;2023-11-19T08:58:59;100352.36;;;13.16;38.37
80414;BME280;69758;52.580;13.068;2023-11-19T09:01:25;100339.92;;;13.19;38.47
80414;BME280;69758;52.580;13.068;2023-11-19T09:03:50;100348.62;;;13.54;38.38
80414;BME280;69758;52.580;13.068;2023-11-19T09:06:16;100356.34;;;12.95;39.06
80414;BME280;69758;52.580;13.068;2023-11-19T09:08:42;100357.28;;;13.06;38.95
80414;BME280;69758;52.580;13.068;2023-11-19T09:11:09;100355.98;;;13.22;38.72
80414;BME280;69758;52.580;13.068;2023-11-19T09:13:31;100356.98;;;13.26;38.72
80414;BME280;69758;52.580;13.068;2023-11-19T09:15:56;100358.88;;;13.35;38.72
80414;BME280;69758;52.580;13.068;2023-11-19T09:18:23;100352.47;;;13.71;38.64
80414;BME280;69758;52.580;13.068;2023-11-19T09:20:48;100353.49;;;13.53;38.66
80414;BME280;69758;52.580;13.068;2023-11-19T09:23:14;100352.93;;;13.39;38.67
80414;BME280;69758;52.580;13.068;2023-11-19T09:25:37;100346.48;;;13.75;38.65
80414;BME280;69758;52.580;13.068;2023-11-19T09:28:03;100342.17;;;13.83;38.57
80414;BME280;69758;52.580;13.068;2023-11-19T09:30:29;100345.64;;;13.88;38.59
80414;BME280;69758;52.580;13.068;2023-11-19T09:32:53;100342.22;;;13.89;38.73
80414;BME280;69758;52.580;13.068;2023-11-19T09:35:20;100343.49;;;13.98;38.76
80414;BME280;69758;52.580;13.068;2023-11-19T09:37:44;100336.37;;;13.98;38.98
80414;BME280;69758;52.580;13.068;2023-11-19T09:40:12;100327.94;;;14.00;39.24
80414;BME280;69758;52.580;13.068;2023-11-19T09:42:43;100326.24;;;14.20;39.19
80414;BME280;69758;52.580;13.068;2023-11-19T09:45:03;100324.36;;;14.35;39.24
80414;BME280;69758;52.580;13.068;2023-11-19T09:47:27;100326.78;;;14.41;39.32
80414;BME280;69758;52.580;13.068;2023-11-19T09:49:51;100328.95;;;14.52;39.37
80414;BME280;69758;52.580;13.068;2023-11-19T09:52:16;100324.53;;;14.56;39.54
80414;BME280;69758;52.580;13.068;2023-11-19T09:54:41;100328.90;;;14.68;39.53
80414;BME280;69758;52.580;13.068;2023-11-19T09:57:07;100324.27;;;14.20;39.74
80414;BME280;69758;52.580;13.068;2023-11-19T09:59:33;100325.74;;;14.73;39.80
80414;BME280;69758;52.580;13.068;2023-11-19T10:01:59;100319.91;;;14.74;39.98
80414;BME280;69758;52.580;13.068;2023-11-19T10:04:24;100316.75;;;14.60;39.96
80414;BME280;69758;52.580;13.068;2023-11-19T10:06:50;100315.96;;;14.36;40.20
80414;BME280;69758;52.580;13.068;2023-11-19T10:09:14;100316.65;;;14.65;40.23
80414;BME280;69758;52.580;13.068;2023-11-19T10:11:39;100313.54;;;14.62;40.40
80414;BME280;69758;52.580;13.068;2023-11-19T10:14:04;100312.85;;;14.30;40.76
80414;BME280;69758;52.580;13.068;2023-11-19T10:16:30;100311.19;;;14.62;40.92
80414;BME280;69758;52.580;13.068;2023-11-19T10:18:56;100308.97;;;14.65;41.30
80414;BME280;69758;52.580;13.068;2023-11-19T10:21:21;100310.38;;;14.53;41.52
80414;BME280;69758;52.580;13.068;2023-11-19T10:23:50;100306.18;;;15.03;41.45
80414;BME280;69758;52.580;13.068;2023-11-19T10:26:12;100298.91;;;14.69;41.70
80414;BME280;69758;52.580;13.068;2023-11-19T10:28:39;100299.94;;;15.16;41.57
80414;BME280;69758;52.580;13.068;2023-11-19T10:31:06;100300.32;;;14.92;41.80
80414;BME280;69758;52.580;13.068;2023-11-19T10:33:30;100297.58;;;15.07;41.64
80414;BME280;69758;52.580;13.068;2023-11-19T10:35:53;100292.66;;;15.00;41.96
80414;BME280;69758;52.580;13.068;2023-11-19T10:38:17;100288.74;;;15.16;41.99
80414;BME280;69758;52.580;13.068;2023-11-19T10:40:43;100291.48;;;15.46;41.59
80414;BME280;69758;52.580;13.068;2023-11-19T10:43:09;100295.60;;;15.11;41.34
80414;BME280;69758;52.580;13.068;2023-11-19T10:45:33;100299.23;;;15.33;41.88
80414;BME280;69758;52.580;13.068;2023-11-19T10:47:59;100298.62;;;15.38;41.91
80414;BME280;69758;52.580;13.068;2023-11-19T10:50:25;100294.39;;;15.21;41.75
80414;BME280;69758;52.580;13.068;2023-11-19T10:52:52;100296.21;;;15.07;41.72
80414;BME280;69758;52.580;13.068;2023-11-19T10:55:16;100295.84;;;15.42;41.26
80414;BME280;69758;52.580;13.068;2023-11-19T10:57:43;100292.14;;;15.61;40.98
80414;BME280;69758;52.580;13.068;2023-11-19T11:00:07;100291.68;;;15.52;41.01
80414;BME280;69758;52.580;13.068;2023-11-19T11:02:34;100283.69;;;15.70;41.37
80414;BME280;69758;52.580;13.068;2023-11-19T11:04:56;100282.18;;;15.72;41.50
80414;BME280;69758;52.580;13.068;2023-11-19T11:07:22;100289.49;;;15.48;41.94
80414;BME280;69758;52.580;13.068;2023-11-19T11:09:47;100288.92;;;15.56;42.43
80414;BME280;69758;52.580;13.068;2023-11-19T11:12:14;100284.01;;;15.56;42.56
80414;BME280;69758;52.580;13.068;2023-11-19T11:14:38;100282.93;;;15.67;42.18
80414;BME280;69758;52.580;13.068;2023-11-19T11:17:03;100281.75;;;15.82;42.45
80414;BME280;69758;52.580;13.068;2023-11-19T11:19:28;100276.41;;;15.60;42.63
80414;BME280;69758;52.580;13.068;2023-11-19T11:21:54;100277.63;;;15.70;42.48
80414;BME280;69758;52.580;13.068;2023-11-19T11:24:32;100273.66;;;15.97;42.00
80414;BME280;69758;52.580;13.068;2023-11-19T11:26:59;100273.87;;;16.30;41.62
80414;BME280;69758;52.580;13.068;2023-11-19T11:29:14;100274.29;;;16.57;41.26
80414;BME280;69758;52.580;13.068;2023-11-19T11:31:39;100274.86;;;16.50;41.22
80414;BME280;69758;52.580;13.068;2023-11-19T11:34:12;100267.18;;;16.20;40.75
80414;BME280;69758;52.580;13.068;2023-11-19T11:36:25;100282.04;;;15.92;41.48
80414;BME280;69758;52.580;13.068;2023-11-19T11:38:50;100282.16;;;15.89;41.29
80414;BME280;69758;52.580;13.068;2023-11-19T11:41:16;100284.05;;;16.23;41.23
80414;BME280;69758;52.580;13.068;2023-11-19T11:43:46;100291.02;;;16.23;40.91
80414;BME280;69758;52.580;13.068;2023-11-19T11:46:05;100284.75;;;16.00;41.11
80414;BME280;69758;52.580;13.068;2023-11-19T11:48:30;100285.84;;;15.62;41.55
80414;BME280;69758;52.580;13.068;2023-11-19T11:50:57;100284.05;;;15.78;41.84
80414;BME280;69758;52.580;13.068;2023-11-19T11:53:22;100284.04;;;15.49;42.23
80414;BME280;69758;52.580;13.068;2023-11-19T11:55:55;100282.67;;;15.73;41.77
80414;BME280;69758;52.580;13.068;2023-11-19T11:58:12;100288.82;;;15.79;41.15
80414;BME280;69758;52.580;13.068;2023-11-19T12:00:42;100288.93;;;15.62;41.20
80414;BME280;69758;52.580;13.068;2023-11-19T12:03:06;100290.38;;;15.55;41.10
80414;BME280;69758;52.580;13.068;2023-11-19T12:05:29;100289.35;;;16.11;40.57
80414;BME280;69758;52.580;13.068;2023-11-19T12:07:55;100297.76;;;16.05;40.62
80414;BME280;69758;52.580;13.068;2023-11-19T12:10:20;100293.26;;;16.17;40.49
80414;BME280;69758;52.580;13.068;2023-11-19T12:12:43;100290.59;;;16.29;40.34
80414;BME280;69758;52.580;13.068;2023-11-19T12:15:09;100287.67;;;16.34;40.09
80414;BME280;69758;52.580;13.068;2023-11-19T12:17:47;100285.80;;;16.13;40.14
80414;BME280;69758;52.580;13.068;2023-11-19T12:20:00;100279.82;;;16.58;39.50
80414;BME280;69758;52.580;13.068;2023-11-19T12:22:25;100280.69;;;16.85;39.17
80414;BME280;69758;52.580;13.068;2023-11-19T12:24:49;100274.36;;;16.70;39.56
80414;BME280;69758;52.580;13.068;2023-11-19T12:27:17;100267.50;;;16.97;39.32
80414;BME280;69758;52.580;13.068;2023-11-19T12:29:43;100269.62;;;16.57;39.16